Time;durP1;ratioP1;P1;durP2;ratioP2;P2;SDS_P1;SDS_P2;PMS_P1;PMS_P2;Temp;Humidity;BMP_temperature;BMP_pressure;BME280_temperature;BME280_humidity;BME280_pressure;Samples;Min_cycle;Max_cycle;Signal;HPM_P1;HPM_P2
2021/12/04 00:01:57;;;;;;;24.88;15.45;;;5.10;99.90;;;;;;5034372;28;20370;-75
2021/12/04 00:04:45;;;;;;;24.35;15.77;;;5.10;99.90;;;;;;5033592;28;20026;-74
2021/12/04 00:07:11;;;;;;;20.60;14.45;;;5.20;99.90;;;;;;5033979;28;20389;-74
2021/12/04 00:09:37;;;;;;;24.15;14.88;;;5.10;99.90;;;;;;5033980;28;20398;-71
2021/12/04 00:12:05;;;;;;;25.98;15.55;;;5.20;99.90;;;;;;5035056;28;20025;-74
2021/12/04 00:14:32;;;;;;;26.23;15.15;;;5.20;99.90;;;;;;5034921;28;20017;-74
2021/12/04 00:16:58;;;;;;;24.77;16.15;;;5.20;99.90;;;;;;5033822;28;20037;-74
2021/12/04 00:19:25;;;;;;;26.30;16.77;;;5.20;99.90;;;;;;5036238;28;20123;-75
2021/12/04 00:21:51;;;;;;;26.10;16.33;;;5.20;99.90;;;;;;5033854;28;20107;-74
2021/12/04 00:24:17;;;;;;;28.05;18.20;;;5.10;99.90;;;;;;5035049;28;20029;-74
2021/12/04 00:26:45;;;;;;;28.95;17.42;;;5.10;99.90;;;;;;5034476;28;20025;-74
2021/12/04 00:29:11;;;;;;;31.35;17.88;;;5.20;99.90;;;;;;5034921;28;20394;-74
2021/12/04 00:31:40;;;;;;;28.67;17.67;;;5.10;99.90;;;;;;5033659;28;20021;-74
2021/12/04 00:34:06;;;;;;;26.88;17.85;;;5.20;99.90;;;;;;5034918;28;20037;-75
2021/12/04 00:50:07;;;;;;;34.35;20.40;;;5.20;99.90;;;;;;5038566;28;20501;-74
2021/12/04 00:52:32;;;;;;;32.28;20.50;;;5.10;99.90;;;;;;5036800;28;20033;-74
2021/12/04 00:54:58;;;;;;;27.58;18.80;;;5.20;99.90;;;;;;5034310;28;20025;-75
2021/12/04 00:57:24;;;;;;;31.00;19.52;;;5.10;99.90;;;;;;5035108;28;20029;-74
2021/12/04 00:59:49;;;;;;;33.78;20.17;;;5.10;99.90;;;;;;5033569;28;20065;-75
2021/12/04 01:02:18;;;;;;;30.77;19.23;;;5.10;99.90;;;;;;5035335;28;20026;-75
2021/12/04 01:04:44;;;;;;;32.05;19.88;;;5.20;99.90;;;;;;5035213;28;20030;-74
2021/12/04 01:07:10;;;;;;;36.35;19.40;;;5.20;99.90;;;;;;5034242;28;20138;-74
2021/12/04 01:09:35;;;;;;;34.35;20.77;;;5.20;99.90;;;;;;5032895;28;20025;-74
2021/12/04 01:12:02;;;;;;;37.90;22.33;;;5.20;99.90;;;;;;5034552;28;20071;-75
2021/12/04 01:14:28;;;;;;;35.20;20.90;;;5.20;99.90;;;;;;5033040;28;20029;-73
2021/12/04 01:16:55;;;;;;;34.35;20.80;;;5.20;99.90;;;;;;5032734;28;20055;-74
2021/12/04 01:19:21;;;;;;;36.70;24.15;;;5.20;99.90;;;;;;5034804;28;20075;-74
2021/12/04 01:21:48;;;;;;;38.25;23.25;;;5.20;99.90;;;;;;5034698;28;20123;-75
2021/12/04 01:24:14;;;;;;;35.75;23.58;;;5.30;99.90;;;;;;5034629;28;20506;-76
2021/12/04 01:26:40;;;;;;;38.42;21.48;;;5.30;99.90;;;;;;5033882;28;20045;-74
2021/12/04 01:29:06;;;;;;;44.88;25.35;;;5.30;99.90;;;;;;5033745;28;20496;-74
2021/12/04 01:31:32;;;;;;;35.47;22.65;;;5.30;99.90;;;;;;5028320;28;20511;-74
2021/12/04 01:33:57;;;;;;;39.83;22.70;;;5.20;99.90;;;;;;5014211;28;20026;-74
2021/12/04 01:36:24;;;;;;;42.30;23.67;;;5.20;99.90;;;;;;5016550;28;20092;-75
2021/12/04 01:38:50;;;;;;;42.60;24.60;;;5.20;99.90;;;;;;5016830;28;20033;-73
2021/12/04 01:41:17;;;;;;;39.63;23.52;;;5.20;99.90;;;;;;5013472;28;20033;-74
2021/12/04 01:43:42;;;;;;;40.65;24.02;;;5.20;99.90;;;;;;5029243;28;20052;-74
2021/12/04 01:46:08;;;;;;;43.35;24.58;;;5.20;99.90;;;;;;5032152;28;20475;-74
2021/12/04 01:48:34;;;;;;;42.25;24.00;;;5.20;99.90;;;;;;5031197;28;20540;-74
2021/12/04 01:51:01;;;;;;;44.95;26.13;;;5.20;99.90;;;;;;5030764;28;20033;-74
2021/12/04 01:53:27;;;;;;;47.03;25.50;;;5.20;99.90;;;;;;5031944;28;20022;-73
2021/12/04 01:55:55;;;;;;;39.72;23.98;;;5.20;99.90;;;;;;5033106;28;20052;-74
2021/12/04 01:58:21;;;;;;;44.70;24.35;;;5.20;99.90;;;;;;5033463;28;20021;-75
2021/12/04 02:00:47;;;;;;;43.00;25.00;;;5.20;99.90;;;;;;5033984;28;20022;-74
2021/12/04 02:03:14;;;;;;;39.55;24.65;;;5.20;99.90;;;;;;5034173;28;20423;-74
2021/12/04 02:05:43;;;;;;;43.80;25.58;;;5.20;99.90;;;;;;5033578;28;20091;-74
2021/12/04 02:08:12;;;;;;;45.30;25.20;;;5.20;99.90;;;;;;5031468;28;20025;-74
2021/12/04 02:10:38;;;;;;;40.10;24.42;;;5.20;99.90;;;;;;5014395;28;20018;-75
2021/12/04 02:13:04;;;;;;;39.33;24.90;;;5.20;99.90;;;;;;5014250;28;20040;-75
2021/12/04 02:15:30;;;;;;;42.25;24.20;;;5.20;99.90;;;;;;5013665;28;20034;-74
2021/12/04 02:17:57;;;;;;;44.03;23.95;;;5.20;99.90;;;;;;5013653;28;20105;-75
2021/12/04 02:20:28;;;;;;;40.80;24.33;;;5.20;99.90;;;;;;5015234;28;20080;-75
2021/12/04 02:22:54;;;;;;;;;;;5.20;99.90;;;;;;5019590;28;20024;-74
2021/12/04 02:25:20;;;;;;;40.40;22.75;;;5.30;99.90;;;;;;5033347;28;19909;-74
2021/12/04 02:27:46;;;;;;;39.25;23.08;;;5.20;99.90;;;;;;5033322;28;20433;-74
2021/12/04 02:30:17;;;;;;;37.20;22.95;;;5.20;99.90;;;;;;5033816;28;20034;-75
2021/12/04 02:32:43;;;;;;;40.30;23.95;;;5.20;99.90;;;;;;5034072;28;20049;-76
2021/12/04 02:35:11;;;;;;;36.53;22.60;;;5.20;99.90;;;;;;5032133;28;20487;-75
2021/12/04 02:37:38;;;;;;;35.78;21.15;;;5.30;99.90;;;;;;5032538;28;20029;-75
2021/12/04 02:40:07;;;;;;;36.90;21.58;;;5.30;99.90;;;;;;5033437;28;20267;-75
2021/12/04 02:42:33;;;;;;;37.47;22.67;;;5.30;99.90;;;;;;5033362;28;20025;-75
2021/12/04 02:45:02;;;;;;;39.97;23.30;;;5.30;99.90;;;;;;5032087;28;20071;-74
2021/12/04 02:47:28;;;;;;;36.63;21.77;;;5.30;99.90;;;;;;5033890;28;20064;-75
2021/12/04 02:49:55;;;;;;;39.65;23.05;;;5.30;99.90;;;;;;5035533;28;20049;-75
2021/12/04 02:52:21;;;;;;;34.83;22.13;;;5.30;99.90;;;;;;5036950;28;20112;-75
2021/12/04 02:54:49;;;;;;;39.55;23.73;;;5.30;99.90;;;;;;5053005;28;20025;-75
2021/12/04 02:57:16;;;;;;;38.13;23.27;;;5.30;99.90;;;;;;5038248;28;20045;-75
2021/12/04 02:59:43;;;;;;;37.88;24.17;;;5.30;99.90;;;;;;5038246;28;20071;-75
2021/12/04 03:02:17;;;;;;;40.50;22.83;;;5.30;99.90;;;;;;5037946;28;20440;-75
2021/12/04 03:04:45;;;;;;;39.55;24.00;;;5.30;99.90;;;;;;5037524;28;20063;-76
2021/12/04 03:07:11;;;;;;;39.78;23.45;;;5.30;99.90;;;;;;5037314;28;20025;-74
2021/12/04 03:09:36;;;;;;;37.05;22.27;;;5.30;99.90;;;;;;5036812;28;20029;-75
2021/12/04 03:12:06;;;;;;;37.63;22.88;;;5.30;99.90;;;;;;5037176;28;20106;-74
2021/12/04 03:14:32;;;;;;;37.55;22.73;;;5.30;99.90;;;;;;5037255;28;20363;-75
2021/12/04 03:16:58;;;;;;;38.45;23.55;;;5.30;99.90;;;;;;5037568;28;20026;-75
2021/12/04 03:19:25;;;;;;;39.40;23.65;;;5.30;99.90;;;;;;5037386;28;20470;-75
2021/12/04 03:21:51;;;;;;;40.28;22.40;;;5.30;99.90;;;;;;5037079;28;20080;-75
2021/12/04 03:24:18;;;;;;;35.80;23.08;;;5.30;99.90;;;;;;5036696;28;20059;-75
2021/12/04 03:26:46;;;;;;;37.90;22.45;;;5.30;99.90;;;;;;5037425;28;20028;-75
2021/12/04 03:29:15;;;;;;;39.92;23.20;;;5.30;99.90;;;;;;5037474;28;20021;-75
2021/12/04 03:31:56;;;;;;;36.28;21.45;;;5.30;99.90;;;;;;5036508;28;20116;-76
2021/12/04 03:42:38;;;;;;;36.92;22.77;;;5.20;99.90;;;;;;5017679;28;20554;-75
2021/12/04 03:45:05;;;;;;;42.35;25.10;;;5.20;99.90;;;;;;5017004;28;20451;-75
2021/12/04 03:47:31;;;;;;;40.78;23.75;;;5.20;99.90;;;;;;5017672;28;20373;-75
2021/12/04 03:49:57;;;;;;;41.28;23.40;;;5.20;99.90;;;;;;5018116;28;20049;-75
2021/12/04 03:52:23;;;;;;;38.00;23.15;;;5.20;99.90;;;;;;5034799;28;20509;-75
2021/12/04 03:54:49;;;;;;;37.58;22.52;;;5.20;99.90;;;;;;5036131;28;20029;-74
2021/12/04 03:57:15;;;;;;;36.60;22.02;;;5.20;99.90;;;;;;5038091;28;20033;-75
2021/12/04 03:59:44;;;;;;;44.58;25.75;;;5.20;99.90;;;;;;5036658;28;20048;-75
2021/12/04 04:02:12;;;;;;;39.05;23.77;;;5.20;99.90;;;;;;5037340;28;20033;-75
2021/12/04 04:04:38;;;;;;;42.13;24.65;;;5.20;99.90;;;;;;5037002;28;20026;-75
2021/12/04 04:07:05;;;;;;;42.28;23.67;;;5.20;99.90;;;;;;5035772;28;20043;-75
2021/12/04 04:09:31;;;;;;;40.22;23.58;;;5.20;99.90;;;;;;5036693;28;20495;-75
2021/12/04 04:11:57;;;;;;;37.20;22.45;;;5.10;99.90;;;;;;5034763;28;20068;-75
2021/12/04 04:14:24;;;;;;;41.30;23.35;;;5.10;99.90;;;;;;5036386;28;20470;-75
2021/12/04 04:16:53;;;;;;;47.42;25.08;;;5.20;99.90;;;;;;5036457;28;20125;-75
2021/12/04 04:19:19;;;;;;;40.03;23.33;;;5.20;99.90;;;;;;5036208;28;20383;-75
2021/12/04 04:21:44;;;;;;;44.38;24.58;;;5.20;99.90;;;;;;5035521;28;20017;-75
2021/12/04 04:24:12;;;;;;;39.55;24.05;;;5.20;99.90;;;;;;5036392;28;20033;-75
2021/12/04 04:26:38;;;;;;;41.80;24.63;;;5.20;99.90;;;;;;5034568;28;20040;-75
2021/12/04 04:29:05;;;;;;;41.72;23.02;;;5.20;99.90;;;;;;5036401;28;20037;-76
2021/12/04 04:31:33;;;;;;;44.65;25.23;;;5.20;99.90;;;;;;5036009;28;20029;-75
2021/12/04 04:34:04;;;;;;;47.65;24.88;;;5.10;99.90;;;;;;5035480;28;20018;-74
2021/12/04 04:39:17;;;;;;;47.42;25.40;;;5.20;99.90;;;;;;5035990;28;20462;-75
2021/12/04 04:58:19;;;;;;;45.83;26.27;;;5.20;99.90;;;;;;5035352;28;20116;-75
2021/12/04 05:11:57;;;;;;;47.80;26.63;;;5.20;99.90;;;;;;5034953;28;20091;-74
2021/12/04 05:14:23;;;;;;;49.35;26.95;;;5.20;99.90;;;;;;5034294;28;20025;-74
2021/12/04 05:16:59;;;;;;;49.03;27.20;;;5.20;99.90;;;;;;5032100;22;20050;-49
2021/12/04 05:19:43;;;;;;;45.58;25.50;;;5.10;99.90;;;;;;5013953;28;20022;-52
2021/12/04 05:22:11;;;;;;;52.63;26.45;;;5.10;99.90;;;;;;5013937;28;20452;-51
2021/12/04 05:24:38;;;;;;;45.58;24.75;;;5.10;99.90;;;;;;5013699;28;20053;-53
2021/12/04 05:27:03;;;;;;;50.05;26.15;;;5.10;99.90;;;;;;5012901;28;20367;-48
2021/12/04 05:29:29;;;;;;;48.90;27.05;;;5.20;99.90;;;;;;5013766;28;20036;-49
2021/12/04 05:31:55;;;;;;;51.42;26.50;;;5.10;99.90;;;;;;5013784;28;20025;-48
2021/12/04 05:34:21;;;;;;;45.25;25.27;;;5.20;99.90;;;;;;5013716;28;20026;-48
2021/12/04 05:36:46;;;;;;;45.75;25.48;;;5.10;99.90;;;;;;5013555;28;20026;-48
2021/12/04 05:39:12;;;;;;;49.85;26.15;;;5.10;99.90;;;;;;5013412;28;20386;-52
2021/12/04 05:41:38;;;;;;;49.22;25.58;;;5.10;99.90;;;;;;5012220;28;20042;-49
2021/12/04 05:44:06;;;;;;;48.72;25.15;;;5.20;99.90;;;;;;5012195;28;20132;-49
2021/12/04 05:47:10;;;;;;;54.97;26.23;;;5.10;99.90;;;;;;5013470;28;20021;-49
2021/12/04 05:49:31;;;;;;;52.95;26.08;;;5.10;99.90;;;;;;5012156;28;20052;-51
2021/12/04 05:57:08;;;;;;;49.78;26.27;;;5.10;99.90;;;;;;5013282;28;20061;-52
2021/12/04 05:59:33;;;;;;;52.33;25.58;;;5.00;99.90;;;;;;5011856;28;20036;-51
2021/12/04 06:02:00;;;;;;;53.20;25.63;;;5.10;99.90;;;;;;5012664;28;20113;-54
2021/12/04 06:04:26;;;;;;;49.85;26.15;;;5.10;99.90;;;;;;5012968;28;20049;-50
2021/12/04 06:06:52;;;;;;;54.53;27.35;;;5.10;99.90;;;;;;5013204;28;20450;-50
2021/12/04 06:09:17;;;;;;;54.72;25.98;;;5.10;99.90;;;;;;5012763;28;20025;-53
2021/12/04 06:11:43;;;;;;;56.83;28.38;;;5.10;99.90;;;;;;5012929;28;20041;-54
2021/12/04 06:14:09;;;;;;;51.58;26.98;;;5.10;99.90;;;;;;5013591;28;20030;-49
2021/12/04 06:16:34;;;;;;;49.90;26.75;;;5.10;99.90;;;;;;5013813;28;20026;-49
2021/12/04 06:19:10;;;;;;;56.10;27.60;;;5.10;99.90;;;;;;5013069;28;20025;-51
2021/12/04 06:24:20;;;;;;;55.75;26.65;;;5.20;99.90;;;;;;5014676;28;20084;-52
2021/12/04 06:26:46;;;;;;;48.08;25.10;;;5.20;99.90;;;;;;5016834;28;20038;-49
2021/12/04 06:29:11;;;;;;;49.22;25.48;;;5.20;99.90;;;;;;5017763;28;20083;-54
2021/12/04 06:31:37;;;;;;;48.85;26.00;;;5.20;99.90;;;;;;5017158;28;20033;-51
2021/12/04 06:34:02;;;;;;;50.35;27.30;;;5.20;99.90;;;;;;5017263;28;20087;-52
2021/12/04 06:36:28;;;;;;;53.15;27.23;;;5.20;99.90;;;;;;5017168;28;20033;-50
2021/12/04 06:38:54;;;;;;;50.80;25.98;;;5.30;99.90;;;;;;5016088;28;20117;-51
2021/12/04 06:41:19;;;;;;;50.63;26.58;;;5.30;99.90;;;;;;5017204;28;20076;-52
2021/12/04 06:43:49;;;;;;;48.80;25.38;;;5.30;99.90;;;;;;5016961;28;20367;-49
2021/12/04 06:46:17;;;;;;;50.30;27.25;;;5.30;99.90;;;;;;5017282;28;20047;-49
2021/12/04 06:56:42;;;;;;;49.58;26.17;;;5.30;99.90;;;;;;4997205;28;20034;-50
2021/12/04 06:59:11;;;;;;;47.53;24.30;;;5.30;99.90;;;;;;5003994;28;20525;-49
2021/12/04 07:01:38;;;;;;;47.58;25.60;;;5.30;99.90;;;;;;5016420;28;20482;-53
2021/12/04 07:04:04;;;;;;;46.15;24.58;;;5.30;99.90;;;;;;5016225;28;20034;-51
2021/12/04 07:06:30;;;;;;;48.15;24.55;;;5.30;99.90;;;;;;5016537;28;20444;-49
2021/12/04 07:08:57;;;;;;;46.30;23.17;;;5.30;99.90;;;;;;5016404;28;20033;-54
2021/12/04 07:11:23;;;;;;;46.58;23.90;;;5.30;99.90;;;;;;5015232;28;20030;-50
2021/12/04 07:13:48;;;;;;;43.60;23.63;;;5.30;99.90;;;;;;5015265;28;20034;-53
2021/12/04 07:16:18;;;;;;;38.47;21.35;;;5.40;99.90;;;;;;5015971;28;20117;-51
2021/12/04 07:18:44;;;;;;;39.80;21.02;;;5.40;99.90;;;;;;5016267;28;20061;-50
2021/12/04 07:21:11;;;;;;;44.28;22.77;;;5.30;99.90;;;;;;5016671;28;20033;-52
2021/12/04 07:23:38;;;;;;;38.65;21.52;;;5.30;99.90;;;;;;5016270;28;20442;-51
2021/12/04 07:26:04;;;;;;;38.47;22.17;;;5.30;99.90;;;;;;5015131;28;20092;-50
2021/12/04 07:28:30;;;;;;;42.55;22.42;;;5.30;99.90;;;;;;5011476;28;20037;-50
2021/12/04 07:30:55;;;;;;;37.00;20.58;;;5.40;99.90;;;;;;5013646;28;20030;-49
2021/12/04 07:33:21;;;;;;;43.88;20.88;;;5.30;99.90;;;;;;5016013;28;20030;-50
2021/12/04 07:35:47;;;;;;;33.72;20.38;;;5.30;99.90;;;;;;5015189;28;20049;-52
2021/12/04 07:38:14;;;;;;;36.70;20.02;;;5.40;99.90;;;;;;5012937;28;20022;-52
2021/12/04 07:40:40;;;;;;;33.17;19.45;;;5.40;99.90;;;;;;5015493;28;20088;-50
2021/12/04 07:43:05;;;;;;;38.90;19.52;;;5.40;99.90;;;;;;5014970;28;20025;-49
2021/12/04 07:45:31;;;;;;;34.63;18.63;;;5.40;99.90;;;;;;5013620;28;20030;-50
2021/12/04 07:47:57;;;;;;;35.03;19.13;;;5.40;99.90;;;;;;5014701;28;20188;-50
2021/12/04 07:50:22;;;;;;;33.90;19.60;;;5.30;99.90;;;;;;5013375;28;20538;-52
2021/12/04 07:52:49;;;;;;;38.55;20.15;;;5.40;99.90;;;;;;5014818;28;20391;-51
2021/12/04 07:55:15;;;;;;;35.00;19.27;;;5.40;99.90;;;;;;5014927;28;20394;-52
2021/12/04 07:57:41;;;;;;;33.83;18.60;;;5.40;99.90;;;;;;5013921;28;20138;-50
2021/12/04 08:00:12;;;;;;;34.45;20.58;;;5.30;99.90;;;;;;5014805;28;20034;-53
2021/12/04 08:02:40;;;;;;;35.53;20.15;;;5.30;99.90;;;;;;5014892;28;20026;-51
2021/12/04 08:05:06;;;;;;;37.40;19.23;;;5.30;99.90;;;;;;5014015;28;20088;-54
2021/12/04 08:07:31;;;;;;;34.58;18.60;;;5.30;99.90;;;;;;5012186;28;20038;-51
2021/12/04 08:09:57;;;;;;;33.47;18.98;;;5.30;99.90;;;;;;5014702;28;20116;-50
2021/12/04 08:12:22;;;;;;;36.45;18.90;;;5.30;99.90;;;;;;5014723;28;20454;-54
2021/12/04 08:14:49;;;;;;;34.13;18.95;;;5.30;99.90;;;;;;5014370;28;20058;-50
2021/12/04 08:17:14;;;;;;;37.45;19.95;;;5.30;99.90;;;;;;5013767;28;20106;-51
2021/12/04 08:19:40;;;;;;;36.30;20.38;;;5.30;99.90;;;;;;5014088;28;20105;-50
2021/12/04 08:22:05;;;;;;;31.40;18.15;;;5.40;99.90;;;;;;5014207;28;20029;-52
2021/12/04 08:24:31;;;;;;;35.45;19.27;;;5.40;99.90;;;;;;5014275;28;20026;-51
2021/12/04 08:26:57;;;;;;;34.65;19.48;;;5.50;99.90;;;;;;5013565;28;20033;-52
2021/12/04 08:29:22;;;;;;;32.88;18.65;;;5.50;99.90;;;;;;4994686;28;20472;-51
2021/12/04 08:31:50;;;;;;;32.75;19.17;;;5.50;99.90;;;;;;4994664;28;20037;-50
2021/12/04 08:34:16;;;;;;;34.80;19.90;;;5.50;99.90;;;;;;4994823;28;20549;-51
2021/12/04 08:36:42;;;;;;;33.25;18.30;;;5.50;99.90;;;;;;4994469;28;20128;-54
2021/12/04 08:39:08;;;;;;;34.42;17.58;;;5.50;99.90;;;;;;5012115;28;20025;-51
2021/12/04 08:41:33;;;;;;;37.72;19.27;;;5.50;99.90;;;;;;5014163;28;20105;-51
2021/12/04 08:43:59;;;;;;;37.45;18.48;;;5.50;99.90;;;;;;5013805;28;20399;-49
2021/12/04 08:46:25;;;;;;;34.35;17.75;;;5.50;99.90;;;;;;5013758;28;20038;-50
2021/12/04 08:48:52;;;;;;;32.95;18.80;;;5.50;99.90;;;;;;5012708;28;20097;-48
2021/12/04 08:51:22;;;;;;;33.35;18.25;;;5.50;99.90;;;;;;5013229;28;20058;-50
2021/12/04 08:53:51;;;;;;;34.85;19.58;;;5.50;99.90;;;;;;5014288;28;20068;-52
2021/12/04 08:56:17;;;;;;;36.53;18.98;;;5.50;99.90;;;;;;5013566;28;20022;-52
2021/12/04 08:58:43;;;;;;;36.35;19.08;;;5.50;99.90;;;;;;5012278;28;20030;-49
2021/12/04 09:01:14;;;;;;;35.95;17.95;;;5.50;99.90;;;;;;5014787;28;20033;-50
2021/12/04 09:03:43;;;;;;;33.33;18.83;;;5.50;99.90;;;;;;5013882;28;20022;-49
2021/12/04 09:06:09;;;;;;;30.95;18.58;;;5.50;99.90;;;;;;5012746;28;20032;-49
2021/12/04 09:08:35;;;;;;;30.75;18.52;;;5.60;99.90;;;;;;5010500;28;20120;-49
2021/12/04 09:11:08;;;;;;;30.67;17.60;;;5.60;99.90;;;;;;5013761;28;20121;-50
2021/12/04 09:13:34;;;;;;;32.58;18.60;;;5.50;99.90;;;;;;5013822;28;20058;-54
2021/12/04 09:16:01;;;;;;;38.20;20.05;;;5.50;99.90;;;;;;5014293;28;20030;-54
2021/12/04 09:18:27;;;;;;;32.28;18.08;;;5.50;99.90;;;;;;5012605;28;20040;-54
2021/12/04 09:20:54;;;;;;;32.25;18.60;;;5.50;99.90;;;;;;5013500;28;20030;-52
2021/12/04 09:23:21;;;;;;;30.63;17.98;;;5.50;99.90;;;;;;5013532;28;20036;-51
2021/12/04 09:25:52;;;;;;;30.60;17.63;;;5.50;99.90;;;;;;5013871;28;20026;-53
2021/12/04 10:06:36;;;;;;;36.03;19.58;;;5.50;99.90;;;;;;5012050;28;20056;-52
2021/12/04 10:33:44;;;;;;;30.13;17.42;;;5.70;99.90;;;;;;5012654;28;20045;-53
2021/12/04 10:36:11;;;;;;;31.48;17.17;;;5.70;99.90;;;;;;5011594;28;20030;-53
2021/12/04 10:38:43;;;;;;;28.98;17.42;;;5.80;99.90;;;;;;5012065;28;20026;-53
2021/12/04 10:41:11;;;;;;;29.00;18.45;;;5.80;99.90;;;;;;5012190;28;20437;-53
2021/12/04 10:43:37;;;;;;;31.17;17.42;;;5.80;99.90;;;;;;5012016;28;20193;-50
2021/12/04 10:46:15;;;;;;;26.63;16.52;;;5.90;99.90;;;;;;5011496;28;20033;-54
2021/12/04 10:48:49;;;;;;;26.20;16.02;;;5.90;99.90;;;;;;5010897;28;20063;-54
2021/12/04 10:51:34;;;;;;;28.02;16.50;;;5.80;99.90;;;;;;5012024;28;20041;-53
2021/12/04 10:54:16;;;;;;;25.15;15.65;;;5.80;99.90;;;;;;5012015;28;20026;-54
2021/12/04 11:05:14;;;;;;;24.48;15.52;;;5.80;99.90;;;;;;4999919;28;20069;-54
2021/12/04 11:18:38;;;;;;;25.92;15.60;;;5.80;99.90;;;;;;5011828;28;20085;-50
2021/12/04 11:22:32;;;;;;;24.70;15.85;;;6.00;99.90;;;;;;5016082;28;20108;-51
2021/12/04 11:36:24;;;;;;;33.90;16.52;;;5.90;99.90;;;;;;5015807;28;20434;-54
2021/12/04 11:44:22;;;;;;;27.13;16.23;;;5.90;99.90;;;;;;5015500;28;20025;-53
2021/12/04 11:46:50;;;;;;;27.38;16.70;;;5.90;99.90;;;;;;5015565;28;20029;-52
2021/12/04 11:49:19;;;;;;;28.30;16.73;;;5.90;99.90;;;;;;5014470;28;20506;-54
2021/12/04 11:51:55;;;;;;;27.45;17.88;;;5.80;99.90;;;;;;5015265;28;20026;-54
2021/12/04 11:54:21;;;;;;;25.45;15.60;;;5.80;99.90;;;;;;5016114;28;20449;-51
2021/12/04 11:57:01;;;;;;;30.88;17.05;;;5.90;99.90;;;;;;5015454;28;20405;-52
2021/12/04 11:59:31;;;;;;;29.17;16.88;;;5.90;99.90;;;;;;5014675;28;20096;-50
2021/12/04 12:02:00;;;;;;;25.55;15.95;;;5.90;99.90;;;;;;5015448;28;20026;-52
2021/12/04 12:04:38;;;;;;;29.23;17.27;;;5.90;99.90;;;;;;5015140;28;20487;-54
2021/12/04 12:07:18;;;;;;;28.53;17.10;;;5.90;99.90;;;;;;5014811;28;20034;-52
2021/12/04 12:09:46;;;;;;;24.63;16.10;;;5.90;99.90;;;;;;5013743;28;20663;-54
2021/12/04 12:12:14;;;;;;;25.65;15.68;;;5.90;99.90;;;;;;5014514;28;20034;-54
2021/12/04 12:14:51;;;;;;;28.38;17.30;;;6.00;99.90;;;;;;5014997;28;20030;-50
2021/12/04 12:17:31;;;;;;;27.70;15.82;;;6.00;99.90;;;;;;5014924;28;20037;-51
2021/12/04 12:19:57;;;;;;;27.52;16.35;;;6.00;99.90;;;;;;5014019;28;20475;-49
2021/12/04 12:22:48;;;;;;;27.25;16.27;;;6.10;99.90;;;;;;5014702;28;20179;-49
2021/12/04 12:33:25;;;;;;;25.45;16.30;;;6.50;99.90;;;;;;5015059;28;20029;-49
2021/12/04 12:36:03;;;;;;;23.73;15.52;;;6.50;99.90;;;;;;5014582;28;20033;-51
2021/12/04 12:38:55;;;;;;;26.50;15.43;;;6.60;99.90;;;;;;5014487;28;20032;-49
2021/12/04 12:41:45;;;;;;;24.17;15.20;;;6.50;99.90;;;;;;5012430;28;20055;-52
2021/12/04 12:44:13;;;;;;;28.88;15.48;;;6.50;99.90;;;;;;5014399;28;20030;-51
2021/12/04 12:46:44;;;;;;;25.90;16.27;;;6.40;99.90;;;;;;5014753;28;20390;-51
2021/12/04 12:49:21;;;;;;;24.10;15.20;;;6.40;99.90;;;;;;5013015;28;20026;-50
2021/12/04 12:51:57;;;;;;;26.08;16.55;;;6.40;99.90;;;;;;5013494;28;20025;-51
2021/12/04 12:54:46;;;;;;;23.02;15.05;;;6.30;99.90;;;;;;5014125;28;20040;-53
2021/12/04 12:57:28;;;;;;;23.98;15.38;;;6.30;99.90;;;;;;5010930;28;20037;-53
2021/12/04 13:14:17;;;;;;;23.67;15.18;;;6.00;99.90;;;;;;5014285;28;20033;-51
2021/12/04 13:16:59;;;;;;;25.33;14.35;;;6.00;99.90;;;;;;5014594;28;20033;-49
2021/12/04 13:19:26;;;;;;;23.17;14.48;;;6.10;99.90;;;;;;5013457;28;20107;-52
2021/12/04 13:21:55;;;;;;;23.80;15.00;;;6.10;99.90;;;;;;5014007;28;20097;-50
2021/12/04 13:24:30;;;;;;;24.08;14.90;;;6.00;99.90;;;;;;5013772;28;20118;-52
2021/12/04 13:29:36;;;;;;;25.23;15.35;;;6.00;99.90;;;;;;5013140;28;20038;-54
2021/12/04 13:32:03;;;;;;;26.40;16.40;;;6.00;99.90;;;;;;5013686;28;20033;-54
2021/12/04 13:34:31;;;;;;;24.13;14.20;;;6.00;99.90;;;;;;5011492;28;20075;-51
2021/12/04 13:37:01;;;;;;;29.60;16.65;;;6.10;99.90;;;;;;5015350;28;20048;-54
2021/12/04 13:39:27;;;;;;;23.67;15.23;;;6.10;99.90;;;;;;5010262;28;20127;-55
2021/12/04 13:41:53;;;;;;;24.80;14.85;;;6.10;99.90;;;;;;5015481;28;20067;-56
2021/12/04 13:44:23;;;;;;;25.77;15.05;;;6.10;99.90;;;;;;5015221;28;20030;-54
2021/12/04 13:46:52;;;;;;;22.80;14.18;;;6.10;99.90;;;;;;5013966;28;20032;-55
2021/12/04 13:49:26;;;;;;;25.63;15.73;;;6.10;99.90;;;;;;5013537;28;20084;-54
2021/12/04 13:51:57;;;;;;;23.00;14.75;;;6.10;99.90;;;;;;5013750;28;20097;-55
2021/12/04 13:54:25;;;;;;;22.73;14.43;;;6.10;99.90;;;;;;5012139;28;20049;-54
2021/12/04 13:56:51;;;;;;;23.30;15.30;;;6.10;99.90;;;;;;5013237;28;20073;-54
2021/12/04 13:59:22;;;;;;;21.90;15.15;;;6.10;99.90;;;;;;5012371;28;20030;-52
2021/12/04 14:01:48;;;;;;;24.45;15.48;;;6.10;99.90;;;;;;5013241;28;20030;-54
2021/12/04 14:04:17;;;;;;;23.45;15.45;;;6.10;99.90;;;;;;5013654;28;20037;-54
2021/12/04 14:06:50;;;;;;;23.38;14.90;;;6.10;99.90;;;;;;5013145;28;20030;-54
2021/12/04 14:09:16;;;;;;;25.95;14.77;;;6.20;99.90;;;;;;5011610;28;20030;-52
2021/12/04 14:11:42;;;;;;;21.23;14.65;;;6.10;99.90;;;;;;5013006;28;20419;-52
2021/12/04 14:14:12;;;;;;;25.80;15.30;;;6.20;99.90;;;;;;5012823;28;20056;-54
2021/12/04 14:16:39;;;;;;;25.00;14.77;;;6.10;99.90;;;;;;5012733;28;20042;-52
2021/12/04 14:19:17;;;;;;;22.20;14.07;;;6.10;99.90;;;;;;5012048;28;20022;-52
2021/12/04 14:21:53;;;;;;;24.02;15.43;;;6.10;99.90;;;;;;5012673;28;20498;-51
2021/12/04 14:24:30;;;;;;;25.73;14.98;;;6.10;99.90;;;;;;5012746;28;20110;-53
2021/12/04 14:26:57;;;;;;;24.05;14.40;;;6.10;99.90;;;;;;5012547;28;20030;-54
2021/12/04 14:29:26;;;;;;;21.85;15.52;;;6.10;99.90;;;;;;5011088;28;20069;-57
2021/12/04 14:31:53;;;;;;;21.48;14.57;;;6.10;99.90;;;;;;5011267;28;20402;-56
2021/12/04 14:34:24;;;;;;;23.63;15.63;;;6.10;99.90;;;;;;5012502;28;20040;-55
2021/12/04 14:37:06;;;;;;;22.70;15.43;;;6.00;99.90;;;;;;5011136;28;20029;-56
2021/12/04 14:39:32;;;;;;;23.65;15.10;;;6.00;99.90;;;;;;5012413;28;20034;-54
2021/12/04 14:41:58;;;;;;;22.38;14.60;;;6.00;99.90;;;;;;5011702;28;20103;-56
2021/12/04 14:44:25;;;;;;;21.83;14.40;;;5.90;99.90;;;;;;5013083;28;20075;-56
2021/12/04 14:46:52;;;;;;;24.08;14.60;;;5.90;99.90;;;;;;5016104;28;20034;-57
2021/12/04 14:49:17;;;;;;;21.40;13.80;;;6.00;99.90;;;;;;5016231;28;20053;-55
2021/12/04 14:51:43;;;;;;;22.70;15.07;;;5.90;99.90;;;;;;5016632;28;20471;-56
2021/12/04 14:54:09;;;;;;;23.00;14.32;;;5.90;99.90;;;;;;5016467;28;20037;-55
2021/12/04 14:56:37;;;;;;;25.58;15.82;;;6.00;99.90;;;;;;5014966;28;20030;-55
2021/12/04 14:59:13;;;;;;;26.67;15.48;;;6.00;99.90;;;;;;5014732;28;20026;-55
2021/12/04 15:01:39;;;;;;;24.45;15.20;;;6.00;99.90;;;;;;5015550;28;20057;-57
2021/12/04 15:04:04;;;;;;;19.52;13.60;;;5.90;99.90;;;;;;5015256;28;20343;-58
2021/12/04 15:06:34;;;;;;;19.38;12.63;;;5.90;99.90;;;;;;5014873;28;20072;-58
2021/12/04 15:09:02;;;;;;;23.20;13.65;;;5.90;99.90;;;;;;5015308;28;20026;-55
2021/12/04 15:11:32;;;;;;;18.65;11.85;;;5.90;99.90;;;;;;5013287;28;20053;-57
2021/12/04 15:13:57;;;;;;;18.20;12.23;;;5.90;99.90;;;;;;5013860;28;20061;-57
2021/12/04 15:16:34;;;;;;;22.55;13.30;;;5.90;99.90;;;;;;5015326;28;20168;-56
2021/12/04 15:19:42;;;;;;;18.38;12.85;;;5.90;99.90;;;;;;5015717;28;20030;-56
2021/12/04 15:22:16;;;;;;;17.63;11.68;;;5.90;99.90;;;;;;5010253;28;20085;-56
2021/12/04 15:24:44;;;;;;;20.13;11.88;;;5.90;99.90;;;;;;5014070;28;20087;-56
2021/12/04 15:27:14;;;;;;;16.73;12.05;;;5.90;99.90;;;;;;5014964;28;20105;-54
2021/12/04 15:29:43;;;;;;;17.77;11.85;;;5.90;99.90;;;;;;5015289;28;20049;-56
2021/12/04 15:32:13;;;;;;;15.32;10.75;;;5.80;99.90;;;;;;5014839;28;20026;-56
2021/12/04 15:34:52;;;;;;;18.13;12.55;;;5.80;99.90;;;;;;5014382;28;20033;-56
2021/12/04 15:37:35;;;;;;;17.60;11.85;;;5.90;99.90;;;;;;5014822;28;20045;-54
2021/12/04 15:40:04;;;;;;;15.23;10.60;;;5.90;99.90;;;;;;5013355;28;20577;-53
2021/12/04 15:42:48;;;;;;;16.85;11.50;;;5.90;99.90;;;;;;5014893;28;20036;-52
2021/12/04 15:48:04;;;;;;;23.65;16.77;;;5.80;99.90;;;;;;4995025;28;20071;-56
2021/12/04 15:53:14;;;;;;;17.15;12.18;;;5.70;99.90;;;;;;5014904;28;20033;-53
2021/12/04 15:55:50;;;;;;;21.95;13.55;;;5.70;99.90;;;;;;5014528;28;20048;-55
2021/12/04 15:58:21;;;;;;;16.15;11.68;;;5.80;99.90;;;;;;5014162;28;20048;-52
2021/12/04 16:00:54;;;;;;;21.02;12.82;;;5.80;99.90;;;;;;5014069;28;20113;-53
2021/12/04 16:03:22;;;;;;;22.05;13.45;;;5.80;99.90;;;;;;5014847;28;20482;-54
2021/12/04 16:05:54;;;;;;;21.55;12.73;;;5.80;99.90;;;;;;5014658;28;20033;-52